createdAt,value
2018-08-30T00:00:26.527Z,16.60
2018-08-30T00:02:55.562Z,16.50
2018-08-30T00:05:24.698Z,16.60
2018-08-30T00:07:53.804Z,16.70
2018-08-30T00:10:23.001Z,16.40
2018-08-30T00:12:52.117Z,16.30
2018-08-30T00:15:21.251Z,16.10
2018-08-30T00:17:50.327Z,16.10
2018-08-30T00:20:19.147Z,16.10
2018-08-30T00:22:48.080Z,16.20
2018-08-30T00:25:17.331Z,16.20
2018-08-30T00:27:46.419Z,16.00
2018-08-30T00:30:15.413Z,15.90
2018-08-30T00:32:44.481Z,16.00
2018-08-30T00:35:13.579Z,16.20
2018-08-30T00:37:42.664Z,16.00
2018-08-30T00:40:11.972Z,16.00
2018-08-30T00:42:41.112Z,16.20
2018-08-30T00:45:10.390Z,16.00
2018-08-30T00:47:39.663Z,15.90
2018-08-30T00:50:08.646Z,15.80
2018-08-30T00:52:37.653Z,15.80
2018-08-30T00:55:06.731Z,15.60
2018-08-30T00:57:35.729Z,15.60
2018-08-30T01:00:05.345Z,15.80
2018-08-30T01:02:34.408Z,15.70
2018-08-30T01:05:03.796Z,15.60
2018-08-30T01:07:32.737Z,15.40
2018-08-30T01:10:01.943Z,15.40
2018-08-30T01:12:31.041Z,15.50
2018-08-30T01:15:00.002Z,15.50
2018-08-30T01:17:29.229Z,15.60
2018-08-30T01:19:58.496Z,15.50
2018-08-30T01:22:27.700Z,15.50
2018-08-30T01:24:56.785Z,15.40
2018-08-30T01:27:26.001Z,15.30
2018-08-30T01:29:55.224Z,15.20
2018-08-30T01:32:24.203Z,15.20
2018-08-30T01:34:53.288Z,15.20
2018-08-30T01:37:22.370Z,15.30
2018-08-30T01:39:51.573Z,15.40
2018-08-30T01:42:20.692Z,15.50
2018-08-30T01:44:49.870Z,15.40
2018-08-30T01:47:18.970Z,15.50
2018-08-30T01:49:48.059Z,15.50
2018-08-30T01:52:17.164Z,15.60
2018-08-30T01:54:46.137Z,15.40
2018-08-30T01:57:15.354Z,15.20
2018-08-30T01:59:44.453Z,15.20
2018-08-30T02:02:13.518Z,15.30
2018-08-30T02:04:42.628Z,15.40
2018-08-30T02:07:11.759Z,15.20
2018-08-30T02:09:40.938Z,15.10
2018-08-30T02:12:10.115Z,15.20
2018-08-30T02:14:39.214Z,15.20
2018-08-30T02:17:08.196Z,15.30
2018-08-30T02:19:37.250Z,15.30
2018-08-30T02:22:06.456Z,15.30
2018-08-30T02:24:35.676Z,15.30
2018-08-30T02:27:04.748Z,15.00
2018-08-30T02:29:33.775Z,15.20
2018-08-30T02:32:03.009Z,15.00
2018-08-30T02:34:32.114Z,15.20
2018-08-30T02:37:01.184Z,15.20
2018-08-30T02:39:30.145Z,15.10
2018-08-30T02:41:59.237Z,15.00
2018-08-30T02:44:28.393Z,15.20
2018-08-30T02:46:57.648Z,15.30
2018-08-30T02:49:26.724Z,15.40
2018-08-30T02:51:55.949Z,15.30
2018-08-30T02:54:25.123Z,15.30
2018-08-30T02:56:54.256Z,15.20
2018-08-30T02:59:23.331Z,15.00
2018-08-30T03:01:52.410Z,14.90
2018-08-30T03:04:21.624Z,14.80
2018-08-30T03:06:50.818Z,14.80
2018-08-30T03:09:20.067Z,14.90
2018-08-30T03:11:49.222Z,14.70
2018-08-30T03:14:18.400Z,14.80
2018-08-30T03:16:48.128Z,14.80
2018-08-30T03:19:17.106Z,14.80
2018-08-30T03:21:46.181Z,14.70
2018-08-30T03:24:15.192Z,14.70
2018-08-30T03:26:44.368Z,14.60
2018-08-30T03:29:13.482Z,14.80
2018-08-30T03:31:42.580Z,14.70
2018-08-30T03:34:11.713Z,14.70
2018-08-30T03:36:40.789Z,14.50
2018-08-30T03:39:09.745Z,14.40
2018-08-30T03:41:38.956Z,14.20
2018-08-30T03:44:08.152Z,14.10
2018-08-30T03:46:37.260Z,14.00
2018-08-30T03:49:06.577Z,14.10
2018-08-30T03:51:35.569Z,14.10
2018-08-30T03:54:04.652Z,14.10
2018-08-30T03:56:33.680Z,14.10
2018-08-30T03:59:02.686Z,14.10
2018-08-30T04:01:31.830Z,14.10
2018-08-30T04:04:00.959Z,14.20
2018-08-30T04:06:30.004Z,14.20
2018-08-30T04:08:59.150Z,14.10
2018-08-30T04:11:28.203Z,14.30
2018-08-30T04:13:57.283Z,14.10
2018-08-30T04:16:26.391Z,14.20
2018-08-30T04:19:02.460Z,14.40
2018-08-30T04:21:31.766Z,14.50
2018-08-30T04:24:01.494Z,14.70
2018-08-30T04:26:30.811Z,14.50
2018-08-30T04:29:00.641Z,14.30
2018-08-30T04:31:29.808Z,14.10
2018-08-30T04:33:58.951Z,14.00
2018-08-30T04:36:28.199Z,14.30
2018-08-30T04:38:58.131Z,14.40
2018-08-30T04:41:27.731Z,14.60
2018-08-30T04:43:56.916Z,14.50
2018-08-30T04:46:26.136Z,14.20
2018-08-30T04:48:55.255Z,14.20
2018-08-30T04:51:24.264Z,14.50
2018-08-30T04:53:53.469Z,14.40
2018-08-30T04:56:22.804Z,14.20
2018-08-30T04:58:52.053Z,14.00
2018-08-30T05:01:21.268Z,13.90
2018-08-30T05:03:50.444Z,14.20
2018-08-30T05:06:19.443Z,14.30
2018-08-30T05:08:48.573Z,14.40
2018-08-30T05:11:17.765Z,14.30
2018-08-30T05:13:46.835Z,14.40
2018-08-30T05:16:15.959Z,14.30
2018-08-30T05:18:44.901Z,14.40
2018-08-30T05:21:14.027Z,14.40
2018-08-30T05:23:43.098Z,14.30
2018-08-30T05:26:12.211Z,14.30
2018-08-30T05:28:41.303Z,14.30
2018-08-30T05:31:10.848Z,14.30
2018-08-30T05:33:39.957Z,14.30
2018-08-30T05:36:09.135Z,14.30
2018-08-30T05:38:38.079Z,14.40
2018-08-30T05:41:07.351Z,14.20
2018-08-30T05:43:36.483Z,14.40
2018-08-30T05:46:05.709Z,14.50
2018-08-30T05:48:34.798Z,14.50
2018-08-30T05:51:03.997Z,14.70
2018-08-30T05:53:33.164Z,14.70
2018-08-30T05:56:02.451Z,14.70
2018-08-30T05:58:31.699Z,14.70
2018-08-30T06:01:01.077Z,14.80
2018-08-30T06:03:30.180Z,14.70
2018-08-30T06:05:59.293Z,14.80
2018-08-30T06:08:28.381Z,14.80
2018-08-30T06:10:57.498Z,15.00
2018-08-30T06:13:26.647Z,15.10
2018-08-30T06:15:55.846Z,15.30
2018-08-30T06:18:24.949Z,15.40
2018-08-30T06:20:54.120Z,15.50
2018-08-30T06:23:23.357Z,15.70
2018-08-30T06:25:52.364Z,15.90
2018-08-30T06:28:21.440Z,15.90
2018-08-30T06:30:50.624Z,16.10
2018-08-30T06:33:19.706Z,16.10
2018-08-30T06:35:48.837Z,16.30
2018-08-30T06:38:17.914Z,16.40
2018-08-30T06:40:47.028Z,16.60
2018-08-30T06:43:16.083Z,16.60
2018-08-30T06:45:45.123Z,16.70
2018-08-30T06:48:14.114Z,16.80
2018-08-30T06:50:43.185Z,16.90
2018-08-30T06:53:12.292Z,16.90
2018-08-30T06:55:42.015Z,17.00
2018-08-30T06:58:11.163Z,17.20
2018-08-30T07:00:40.435Z,17.30
2018-08-30T07:03:09.614Z,17.40
2018-08-30T07:05:38.690Z,17.50
2018-08-30T07:08:07.687Z,17.50
2018-08-30T07:10:36.664Z,17.60
2018-08-30T07:13:10.314Z,17.70
2018-08-30T07:15:39.567Z,17.90
2018-08-30T07:18:08.643Z,17.90
2018-08-30T07:20:37.936Z,18.00
2018-08-30T07:23:07.164Z,18.20
2018-08-30T07:25:36.452Z,18.10
2018-08-30T07:28:05.735Z,18.40
2018-08-30T07:30:34.862Z,18.60
2018-08-30T07:33:04.016Z,18.60
2018-08-30T07:35:33.141Z,18.80
2018-08-30T07:38:02.236Z,19.00
2018-08-30T07:40:31.341Z,19.10
2018-08-30T07:43:00.290Z,19.40
2018-08-30T07:45:29.418Z,19.40
2018-08-30T07:47:58.594Z,19.40
2018-08-30T07:50:27.820Z,19.40
2018-08-30T07:52:56.799Z,19.60
2018-08-30T07:55:25.695Z,19.50
2018-08-30T07:57:54.520Z,19.60
2018-08-30T08:00:24.954Z,19.80
2018-08-30T08:02:54.024Z,20.00
2018-08-30T08:05:22.900Z,20.20
2018-08-30T08:07:51.713Z,20.30
2018-08-30T08:10:20.549Z,20.30
2018-08-30T08:12:49.587Z,20.40
2018-08-30T08:15:18.681Z,20.50
2018-08-30T08:17:47.570Z,20.60
2018-08-30T08:20:16.629Z,20.70
2018-08-30T08:22:45.885Z,20.80
2018-08-30T08:25:14.735Z,20.80
2018-08-30T08:27:43.511Z,20.90
2018-08-30T08:30:12.324Z,21.10
2018-08-30T08:32:41.488Z,21.30
2018-08-30T08:35:10.591Z,21.30
2018-08-30T08:37:39.787Z,21.40
2018-08-30T08:40:08.628Z,21.60
2018-08-30T08:42:37.383Z,21.80
2018-08-30T08:45:06.515Z,21.80
2018-08-30T08:47:35.463Z,22.00
2018-08-30T08:50:04.813Z,22.20
2018-08-30T08:52:33.802Z,22.60
2018-08-30T08:55:02.596Z,22.70
2018-08-30T08:57:31.361Z,22.80
2018-08-30T09:00:00.139Z,22.90
2018-08-30T09:02:28.981Z,23.00
2018-08-30T09:04:57.783Z,23.00
2018-08-30T09:07:26.609Z,23.00
2018-08-30T09:09:55.462Z,23.00
2018-08-30T09:12:24.271Z,23.20
2018-08-30T09:14:53.195Z,23.40
2018-08-30T09:17:22.116Z,23.40
2018-08-30T09:19:51.000Z,23.60
2018-08-30T09:22:19.841Z,23.70
2018-08-30T09:24:48.626Z,23.80
2018-08-30T09:27:17.597Z,23.90
2018-08-30T09:29:46.439Z,23.90
2018-08-30T09:32:15.278Z,24.00
2018-08-30T09:34:44.421Z,24.00
2018-08-30T09:37:14.440Z,24.00
2018-08-30T09:39:44.448Z,24.10
2018-08-30T09:42:13.546Z,24.00
2018-08-30T09:44:42.370Z,23.90
2018-08-30T09:47:11.187Z,23.80
2018-08-30T09:49:40.034Z,23.90
2018-08-30T09:52:08.876Z,24.00
2018-08-30T09:54:37.653Z,24.40
2018-08-30T09:57:06.645Z,24.70
2018-08-30T09:59:35.322Z,24.90
2018-08-30T10:02:09.460Z,24.90
2018-08-30T10:04:38.265Z,25.20
2018-08-30T10:07:07.090Z,25.30
2018-08-30T10:09:35.905Z,25.40
2018-08-30T10:12:04.747Z,25.60
2018-08-30T10:14:33.556Z,25.70
2018-08-30T10:17:02.527Z,25.70
2018-08-30T10:19:31.390Z,25.90
2018-08-30T10:22:00.249Z,26.10
2018-08-30T10:24:29.079Z,26.20
2018-08-30T10:26:57.953Z,26.50
2018-08-30T10:29:26.787Z,26.60
2018-08-30T10:31:55.603Z,26.70
2018-08-30T10:34:24.486Z,27.00
2018-08-30T10:36:53.375Z,27.10
2018-08-30T10:39:22.159Z,27.20
2018-08-30T10:41:51.025Z,27.50
2018-08-30T10:44:19.826Z,27.50
2018-08-30T10:46:48.735Z,27.70
2018-08-30T10:49:17.630Z,28.00
2018-08-30T10:51:46.392Z,28.10
2018-08-30T10:54:15.163Z,28.00
2018-08-30T10:56:44.022Z,28.20
2018-08-30T10:59:12.808Z,28.30
2018-08-30T11:01:41.794Z,28.30
2018-08-30T11:04:10.813Z,28.60
2018-08-30T11:06:40.737Z,28.80
2018-08-30T11:09:10.052Z,29.20
2018-08-30T11:11:38.902Z,29.10
2018-08-30T11:14:07.695Z,29.00
2018-08-30T11:16:36.520Z,28.80
2018-08-30T11:19:05.401Z,28.60
2018-08-30T11:21:34.245Z,28.60
2018-08-30T11:24:03.207Z,28.20
2018-08-30T11:26:32.061Z,28.00
2018-08-30T11:29:01.144Z,27.60
2018-08-30T11:31:29.932Z,27.50
2018-08-30T11:33:58.724Z,27.20
2018-08-30T11:36:27.934Z,27.40
2018-08-30T11:38:57.176Z,27.30
2018-08-30T11:41:26.364Z,27.30
2018-08-30T11:43:55.549Z,27.20
2018-08-30T11:46:24.745Z,27.20
2018-08-30T11:48:53.859Z,27.10
2018-08-30T11:51:22.981Z,27.10
2018-08-30T11:53:52.141Z,27.00
2018-08-30T11:56:20.966Z,27.10
2018-08-30T11:58:49.865Z,27.10
2018-08-30T12:01:18.693Z,27.20
2018-08-30T12:03:47.539Z,27.30
2018-08-30T12:06:16.354Z,27.10
2018-08-30T12:08:45.127Z,27.10
2018-08-30T12:11:14.254Z,27.10
2018-08-30T12:13:43.097Z,27.20
2018-08-30T12:16:12.047Z,27.20
2018-08-30T12:18:41.050Z,27.00
2018-08-30T12:21:09.876Z,27.10
2018-08-30T12:23:38.649Z,26.90
2018-08-30T12:26:07.551Z,26.70
2018-08-30T12:28:37.482Z,26.90
2018-08-30T12:31:06.291Z,26.70
2018-08-30T12:33:35.301Z,26.60
2018-08-30T12:36:04.472Z,26.80
2018-08-30T12:38:33.267Z,26.90
2018-08-30T12:41:02.163Z,27.40
2018-08-30T12:43:31.065Z,27.70
2018-08-30T12:45:59.948Z,28.00
2018-08-30T12:48:28.791Z,27.90
2018-08-30T12:50:57.667Z,27.70
2018-08-30T12:53:26.574Z,28.00
2018-08-30T12:55:55.468Z,27.80
2018-08-30T12:58:24.461Z,28.10
2018-08-30T13:00:53.494Z,28.10
2018-08-30T13:03:22.255Z,27.90
2018-08-30T13:05:51.227Z,27.70
2018-08-30T13:08:19.998Z,27.50
2018-08-30T13:10:48.927Z,27.50
2018-08-30T13:13:17.781Z,27.00
2018-08-30T13:15:46.588Z,26.30
2018-08-30T13:18:15.443Z,26.00
2018-08-30T13:20:44.606Z,25.90
2018-08-30T13:23:13.616Z,26.20
2018-08-30T13:25:42.456Z,25.80
2018-08-30T13:28:11.388Z,25.40
2018-08-30T13:30:40.262Z,25.00
2018-08-30T13:33:09.334Z,24.60
2018-08-30T13:35:38.245Z,24.10
2018-08-30T13:38:07.140Z,24.10
2018-08-30T13:40:35.996Z,23.80
2018-08-30T13:43:04.878Z,23.50
2018-08-30T13:45:33.876Z,23.10
2018-08-30T13:48:02.839Z,22.50
2018-08-30T13:53:22.658Z,21.20
2018-08-30T13:55:52.869Z,20.60
2018-08-30T13:58:22.212Z,20.20
2018-08-30T14:00:51.777Z,19.40
2018-08-30T14:03:20.482Z,18.20
2018-08-30T14:05:49.920Z,17.90
2018-08-30T14:08:19.226Z,17.30
2018-08-30T14:10:48.533Z,17.20
2018-08-30T14:13:17.672Z,17.30
2018-08-30T14:15:46.791Z,17.50
2018-08-30T14:18:15.888Z,17.20
2018-08-30T14:20:45.535Z,17.10
2018-08-30T14:23:15.108Z,17.10
2018-08-30T14:25:44.916Z,17.10
2018-08-30T14:28:14.354Z,16.70
2018-08-30T14:30:43.826Z,16.60
2018-08-30T14:33:13.395Z,16.60
2018-08-30T14:35:42.932Z,16.70
2018-08-30T14:38:13.034Z,16.60
2018-08-30T14:40:42.673Z,16.80
